METAR Data
IDs: Format: Raw Decoded Include TAF

Data at: 0626 UTC 19 Aug 2019

KDDH 190615Z AUTO 00000KT 1 3/4SM BR CLR 18/17 A2996 RMK AO2 T01780167
KDDH 190554Z AUTO 00000KT 8SM FEW001 18/17 A2996 RMK AO2 SLP139 60048 T01780172 10206 20172 55007
KDDH 190540Z AUTO 00000KT 4SM BR SCT001 18/17 A2996 RMK AO2 T01780167
KDDH 190537Z AUTO 00000KT 2 1/2SM BR BKN001 18/17 A2995 RMK AO2 T01780167
KDDH 190454Z AUTO 00000KT 1/2SM FG VV001 18/17 A2994 RMK AO2 SLP132 T01780172 403060161
KDDH 190354Z AUTO 00000KT 3/4SM BR VV001 18/17 A2994 RMK AO2 SLP134 T01830172
KDDH 190343Z AUTO 00000KT 3/4SM BR VV001 18/18 A2995 RMK AO2 T01830178
KDDH 190335Z AUTO 00000KT 1SM BR VV001 19/18 A2995 RMK AO2 T01890183
KDDH 190331Z AUTO 00000KT 2SM BR FEW001 19/18 A2995 RMK AO2 T01890178
KDDH 190254Z AUTO 00000KT 10SM CLR 19/18 A2998 RMK AO2 LTG DSNT NE SLP147 60048 T01940183
KDDH 190242Z AUTO 00000KT 10SM VCTS FEW042 20/19 A2999 RMK AO2 LTG DSNT N AND NE T02000189
KDDH 190235Z AUTO 02004KT 10SM FEW001 SCT040 20/18 A2998 RMK AO2 LTG DSNT N AND NE T02000183
KDDH 190226Z AUTO 34005KT 10SM VCTS FEW033 SCT046 20/18 A2999 RMK AO2 LTG DSNT N AND NE T02000183
KDDH 190218Z AUTO VRB03KT 10SM FEW033 BKN043 BKN050 21/19 A2998 RMK AO2 T02060189
KDDH 190154Z AUTO 22004KT 10SM VCTS FEW031 SCT090 BKN110 20/19 A2999 RMK AO2 LTG DSNT ALQDS RAE42 TSE08 SLP150 P0003 T02000189
KDDH 190138Z AUTO 14007KT 10SM -RA FEW085 BKN110 20/18 A2999 RMK AO2 LTG DSNT E AND SE TSE08 P0003 T02000183
KDDH 190114Z AUTO 12013G17KT 9SM VCTS -RA FEW045 OVC100 20/18 A2999 RMK AO2 LTG DSNT NE-S TSE08 PRESFR P0002 T02000183
KDDH 190054Z AUTO 13009KT 5SM -TSRA BKN035 BKN060 OVC110 21/18 A3003 RMK AO2 LTG DSNT ALQDS RAB22 SLP167 P0045 T02060178
KDDH 190052Z AUTO 17009KT 3SM TSRA BR BKN035 BKN060 OVC110 20/18 A3004 RMK AO2 LTG DSNT ALQDS RAB22 P0045
KDDH 190036Z AUTO 20010G19KT 1 3/4SM +TSRA BR SCT028 BKN042 OVC060 20/18 A3002 RMK AO2 LTG DSNT S AND SW RAB22 P0025 T02000183
KDDH 190007Z AUTO VRB03G37KT TS 20/18 A2996 RMK AO2 LTG DSNT SW-NW T02000183 PWINO $
KDDH 182346Z AUTO 25028G39KT 1 1/2SM +TSRA SCT014 BKN023 BKN041 22/19 A3001 RMK AO2 PK WND 25039/2344 LTG DSNT SW AND W RAB42 TSB22 PRESRR P0025 T02220194
KDDH 182328Z AUTO 00000KT 10SM TS SCT050 BKN085 25/22 A2995 RMK AO2 LTG DSNT W AND NW TSB22 T02500217
KDDH 182320Z AUTO 00000KT 10SM VCTS SCT090 25/22 A2994 RMK AO2 LTG DSNT W-N T02500217
KDDH 182254Z AUTO 00000KT 10SM FEW090 SCT110 26/22 A2997 RMK AO2 LTG DSNT W AND NW SLP143 T02560217
KDDH 182154Z AUTO 18005KT 10SM CLR 29/20 A2995 RMK AO2 SLP137 T02940200
KDDH 182054Z AUTO VRB04KT 10SM CLR 30/19 A2997 RMK AO2 SLP144 T03000194 56015
KDDH 181954Z AUTO 24005KT 10SM CLR 30/19 A2998 RMK AO2 SLP147 T03000194
KDDH 181854Z AUTO 35003KT 10SM FEW027 SCT037 29/21 A3000 RMK AO2 SLP151 T02890211
KDDH 181754Z AUTO 28007KT 10SM FEW033 FEW049 29/21 A3002 RMK AO2 SLP160 T02890206 10289 20172 55009
KDDH 181654Z AUTO 00000KT 10SM FEW023 27/21 A3001 RMK AO2 SLP157 T02720206
KDDH 181554Z AUTO 32004KT 10SM SCT020 26/20 A3003 RMK AO2 SLP164 T02610200
KDDH 181531Z AUTO VRB03KT 10SM BKN019 26/19 A3004 RMK AO2 T02560194
KDDH 181454Z AUTO 00000KT 10SM FEW015 25/19 A3005 RMK AO2 SLP171 T02500194 58002
KDDH 181354Z AUTO 00000KT 10SM SCT007 22/19 A3006 RMK AO2 SLP175 T02220189
KDDH 181336Z AUTO 00000KT 10SM FEW002 21/18 A3006 RMK AO2 T02110183 $
KDDH 181316Z AUTO 00000KT 4SM BR BKN002 20/18 A3006 RMK AO2 T02000183 $
KDDH 181302Z AUTO 35003KT 1 3/4SM BR BKN002 19/18 A3005 RMK AO2 T01890178 $
KDDH 181254Z AUTO 00000KT 8SM BKN002 19/18 A3005 RMK AO2 SLP173 T01890178 $
KDDH 181249Z AUTO 00000KT 9SM SCT002 19/18 A3006 RMK AO2 $
KDDH 181221Z AUTO 35003KT 10SM BKN003 BKN016 18/17 A3006 RMK AO2 T01780172 $
KDDH 181215Z AUTO 00000KT 10SM SCT003 SCT016 18/17 A3006 RMK AO2 T01780167 $
KDDH 181206Z AUTO 00000KT 10SM SCT001 BKN015 17/17 A3006 RMK AO2 T01720167 $
KDDH 181154Z AUTO 00000KT 8SM BKN001 17/16 A3006 RMK AO2 SLP175 70055 T01720161 10172 20161 53014 $
KDDH 181146Z AUTO 00000KT 2SM BR OVC001 17/16 A3005 RMK AO2 VIS 1V5 T01670161 $
KDDH 181137Z AUTO 00000KT 3/4SM BR VV002 17/16 A3005 RMK AO2 T01670161 $
KDDH 181054Z AUTO 00000KT M1/4SM FG VV001 16/16 A3004 RMK AO2 SLP168 T01610156 $
KDDH 180954Z AUTO 00000KT 1/4SM FG VV001 16/16 A3002 RMK AO2 SLP159 T01610156 $
KDDH 180929Z AUTO 14003KT 1/4SM FG VV002 17/16 A3002 RMK AO2 T01670156
KDDH 180915Z AUTO 00000KT 1/2SM FG VV002 17/16 A3002 RMK AO2 T01670161
KDDH 180906Z AUTO 00000KT 1/4SM FG VV002 17/16 A3002 RMK AO2 T01670156
KDDH 180854Z AUTO 00000KT 1/2SM FG VV002 17/16 A3001 RMK AO2 SLP157 T01670156 56001
KDDH 180852Z AUTO 00000KT 1/2SM FG VV002 16/16 A3001 RMK AO2
KDDH 180842Z AUTO 32003KT 1SM BR OVC002 16/16 A3001 RMK AO2 T01610156
KDDH 180810Z AUTO 00000KT 1/2SM FG VV002 17/16 A3001 RMK AO2 T01670156
KDDH 180754Z AUTO 00000KT 1 1/4SM BR OVC002 16/16 A3001 RMK AO2 SLP157 T01610156
KDDH 180726Z AUTO 00000KT 1/2SM FG VV001 16/16 A3001 RMK AO2 T01610156
KDDH 180719Z AUTO 00000KT 1/2SM FG SCT002 BKN065 17/16 A3001 RMK AO2 T01670156
KDDH 180708Z AUTO 00000KT 1 3/4SM BR FEW002 SCT070 17/16 A3001 RMK AO2 T01670156
KDDH 180654Z AUTO 00000KT 9SM FEW002 BKN070 BKN080 17/16 A3002 RMK AO2 SLP158 T01670161
KDDH 180616Z AUTO 00000KT 10SM SCT003 BKN080 BKN090 17/16 A3002 RMK AO2 T01670161
KDDH 180554Z AUTO 00000KT 10SM BKN090 17/16 A3002 RMK AO2 SLP160 60001 T01670161 10194 20167 50002
KDDH 180522Z AUTO 15003KT 10SM FEW070 17/16 A3003 RMK AO2 T01670161
KDDH 180515Z AUTO 14003KT 2SM BR FEW002 SCT065 17/16 A3003 RMK AO2 T01670161
KDDH 180454Z AUTO 00000KT 1 1/2SM BR BKN001 17/16 A3003 RMK AO2 SLP164 T01720161 403000167
KDDH 180449Z AUTO 00000KT 1 1/2SM BR OVC001 17/17 A3003 RMK AO2
KDDH 180431Z AUTO 00000KT 1/2SM FG VV001 17/17 A3002 RMK AO2 T01720167
KDDH 180411Z AUTO 00000KT 1/4SM FG VV001 18/17 A3001 RMK AO2 T01780167
KDDH 180400Z AUTO 00000KT 3/4SM BR BKN001 BKN075 17/17 A3001 RMK AO2 T01720167
KDDH 180354Z AUTO 00000KT 1 1/4SM BR SCT002 BKN070 17/16 A3001 RMK AO2 SLP159 T01720161
KDDH 180352Z AUTO 00000KT 1 1/2SM BR SCT002 BKN070 17/17 A3001 RMK AO2
KDDH 180321Z AUTO 00000KT 3SM BR FEW002 SCT070 18/17 A3002 RMK AO2 T01780167
KDDH 180312Z AUTO 00000KT 1 3/4SM BR FEW002 SCT060 17/17 A3001 RMK AO2 T01720167
KDDH 180254Z AUTO 00000KT 10SM SCT060 18/17 A3001 RMK AO2 SLP157 60001 T01780167 53006
KDDH 180154Z AUTO 16004KT 10SM CLR 19/18 A2999 RMK AO2 SLP151 T01890178
KDDH 180115Z AUTO 00000KT 10SM FEW001 SCT120 19/18 A3001 RMK AO2 T01940183
KDDH 180054Z AUTO 00000KT 10SM FEW120 19/18 A3000 RMK AO2 RAE46 SLP154 P0001 T01890178
KDDH 172354Z AUTO 14004KT 10SM -RA FEW090 BKN110 19/18 A2999 RMK AO2 LTG DSNT E AND SE SLP152 P0015 60054 T01940183 10300 20194 50020
KDDH 172254Z AUTO 29003KT 3SM RA BR FEW015 BKN036 OVC060 20/18 A3004 RMK AO2 PK WND 29030/2220 WSHFT 2219 LTG DSNT S AND SW RAB10E19B28 TSB21E40 SLP167 P0039 T02000183
KDDH 172241Z AUTO 29007G16KT 1 3/4SM VCTS +RA BR FEW017 BKN031 BKN038 20/18 A3003 RMK AO2 PK WND 29030/2220 WSHFT 2219 LTG DSNT E AND SW AND W RAB10E19B28 TSB21E40 P0029 T02000183
KDDH 172235Z AUTO 30009G25KT 1 3/4SM +TSRA BR FEW015 BKN021 BKN035 20/18 A3004 RMK AO2 PK WND 29030/2220 WSHFT 2219 LTG DSNT ALQDS RAB10E19B28 TSB21 P0022 T02000178
KDDH 172233Z AUTO 31010G25KT 2SM +TSRA BR SCT017 BKN035 20/18 A3003 RMK AO2 PK WND 29030/2220 WSHFT 2219 LTG DSNT ALQDS RAB10E19B28 TSB21 P0019 T02000178
KDDH 172227Z AUTO 30015G30KT 280V340 10SM TS FEW017 BKN035 22/18 A3002 RMK AO2 PK WND 29030/2220 LTG DSNT ALQDS RAB10E19 TSB21 PRESRR P0000 T02170178
KDDH 172154Z AUTO 17005KT 10SM VCTS SCT050 BKN065 28/18 A2996 RMK AO2 LTG DSNT W-N SLP139 T02780183
KDDH 172054Z AUTO 17012KT 10SM CLR 29/18 A2993 RMK AO2 SLP130 T02940183 58026
KDDH 171954Z AUTO 16007KT 10SM CLR 30/19 A2996 RMK AO2 SLP139 T03000189
KDDH 171854Z AUTO 15008KT 10SM SCT060 29/19 A2999 RMK AO2 LTG DSNT W SLP149 T02890189